sensor_id;sensor_type;location;lat;lon;timestamp;P1;durP1;ratioP1;P2;durP2;ratioP2
19814;SDS011;10067;53.092;8.800;2023-08-07T00:00:02;7.07;;;3.88;;
19814;SDS011;10067;53.092;8.800;2023-08-07T00:02:29;8.02;;;4.22;;
19814;SDS011;10067;53.092;8.800;2023-08-07T00:04:56;5.43;;;3.97;;
19814;SDS011;10067;53.092;8.800;2023-08-07T00:07:22;10.05;;;4.97;;
19814;SDS011;10067;53.092;8.800;2023-08-07T00:09:49;7.35;;;4.45;;
19814;SDS011;10067;53.092;8.800;2023-08-07T00:12:16;10.55;;;5.20;;
19814;SDS011;10067;53.092;8.800;2023-08-07T00:14:43;7.95;;;5.25;;
19814;SDS011;10067;53.092;8.800;2023-08-07T00:17:10;9.50;;;5.28;;
19814;SDS011;10067;53.092;8.800;2023-08-07T00:19:36;9.95;;;6.30;;
19814;SDS011;10067;53.092;8.800;2023-08-07T00:22:03;10.52;;;6.05;;
19814;SDS011;10067;53.092;8.800;2023-08-07T00:24:29;10.75;;;5.82;;
19814;SDS011;10067;53.092;8.800;2023-08-07T00:26:55;13.63;;;6.53;;
19814;SDS011;10067;53.092;8.800;2023-08-07T00:29:22;10.45;;;6.10;;
19814;SDS011;10067;53.092;8.800;2023-08-07T00:31:49;12.57;;;6.43;;
19814;SDS011;10067;53.092;8.800;2023-08-07T00:34:16;8.35;;;6.25;;
19814;SDS011;10067;53.092;8.800;2023-08-07T00:36:42;13.48;;;6.70;;
19814;SDS011;10067;53.092;8.800;2023-08-07T00:39:09;11.93;;;7.28;;
19814;SDS011;10067;53.092;8.800;2023-08-07T00:41:35;10.77;;;6.43;;
19814;SDS011;10067;53.092;8.800;2023-08-07T00:44:02;11.23;;;6.93;;
19814;SDS011;10067;53.092;8.800;2023-08-07T00:46:28;12.10;;;6.85;;
19814;SDS011;10067;53.092;8.800;2023-08-07T00:48:57;11.93;;;6.90;;
19814;SDS011;10067;53.092;8.800;2023-08-07T00:51:23;12.90;;;6.97;;
19814;SDS011;10067;53.092;8.800;2023-08-07T00:53:49;11.07;;;6.68;;
19814;SDS011;10067;53.092;8.800;2023-08-07T00:56:16;10.15;;;7.03;;
19814;SDS011;10067;53.092;8.800;2023-08-07T00:58:43;13.48;;;7.10;;
19814;SDS011;10067;53.092;8.800;2023-08-07T01:01:09;15.20;;;7.03;;
19814;SDS011;10067;53.092;8.800;2023-08-07T01:03:36;13.00;;;6.90;;
19814;SDS011;10067;53.092;8.800;2023-08-07T01:06:03;13.57;;;6.70;;
19814;SDS011;10067;53.092;8.800;2023-08-07T01:08:30;13.68;;;6.82;;
19814;SDS011;10067;53.092;8.800;2023-08-07T01:11:03;8.07;;;6.40;;
19814;SDS011;10067;53.092;8.800;2023-08-07T01:13:32;14.98;;;7.75;;
19814;SDS011;10067;53.092;8.800;2023-08-07T01:16:01;11.85;;;6.90;;
19814;SDS011;10067;53.092;8.800;2023-08-07T01:18:28;10.30;;;6.82;;
19814;SDS011;10067;53.092;8.800;2023-08-07T01:20:55;12.00;;;7.47;;
19814;SDS011;10067;53.092;8.800;2023-08-07T01:23:23;15.65;;;7.35;;
19814;SDS011;10067;53.092;8.800;2023-08-07T01:25:49;13.52;;;7.75;;
19814;SDS011;10067;53.092;8.800;2023-08-07T01:28:16;13.10;;;7.38;;
19814;SDS011;10067;53.092;8.800;2023-08-07T01:30:44;15.57;;;7.82;;
19814;SDS011;10067;53.092;8.800;2023-08-07T01:33:16;14.10;;;8.10;;
19814;SDS011;10067;53.092;8.800;2023-08-07T01:35:43;13.85;;;7.90;;
19814;SDS011;10067;53.092;8.800;2023-08-07T01:38:10;13.38;;;8.00;;
19814;SDS011;10067;53.092;8.800;2023-08-07T01:40:38;12.45;;;6.95;;
19814;SDS011;10067;53.092;8.800;2023-08-07T01:43:05;14.43;;;7.60;;
19814;SDS011;10067;53.092;8.800;2023-08-07T01:45:31;13.75;;;7.47;;
19814;SDS011;10067;53.092;8.800;2023-08-07T01:47:58;13.27;;;8.10;;
19814;SDS011;10067;53.092;8.800;2023-08-07T01:50:25;18.92;;;8.18;;
19814;SDS011;10067;53.092;8.800;2023-08-07T01:52:52;17.25;;;8.18;;
19814;SDS011;10067;53.092;8.800;2023-08-07T01:55:18;16.00;;;7.88;;
19814;SDS011;10067;53.092;8.800;2023-08-07T01:57:46;14.07;;;8.32;;
19814;SDS011;10067;53.092;8.800;2023-08-07T02:00:13;15.00;;;7.50;;
19814;SDS011;10067;53.092;8.800;2023-08-07T02:02:39;12.23;;;7.28;;
19814;SDS011;10067;53.092;8.800;2023-08-07T02:05:05;12.10;;;8.55;;
19814;SDS011;10067;53.092;8.800;2023-08-07T02:07:32;14.68;;;8.27;;
19814;SDS011;10067;53.092;8.800;2023-08-07T02:09:58;14.27;;;8.93;;
19814;SDS011;10067;53.092;8.800;2023-08-07T02:12:25;14.32;;;7.78;;
19814;SDS011;10067;53.092;8.800;2023-08-07T02:14:54;15.35;;;8.50;;
19814;SDS011;10067;53.092;8.800;2023-08-07T02:17:20;11.70;;;7.82;;
19814;SDS011;10067;53.092;8.800;2023-08-07T02:19:47;13.82;;;7.88;;
19814;SDS011;10067;53.092;8.800;2023-08-07T02:22:13;13.95;;;8.50;;
19814;SDS011;10067;53.092;8.800;2023-08-07T02:24:39;14.63;;;7.88;;
19814;SDS011;10067;53.092;8.800;2023-08-07T02:27:06;14.75;;;8.48;;
19814;SDS011;10067;53.092;8.800;2023-08-07T02:29:32;12.68;;;8.70;;
19814;SDS011;10067;53.092;8.800;2023-08-07T02:32:01;15.95;;;8.13;;
19814;SDS011;10067;53.092;8.800;2023-08-07T02:34:27;14.63;;;8.10;;
19814;SDS011;10067;53.092;8.800;2023-08-07T02:36:54;12.13;;;8.40;;
19814;SDS011;10067;53.092;8.800;2023-08-07T02:39:20;13.25;;;8.00;;
19814;SDS011;10067;53.092;8.800;2023-08-07T02:41:46;11.07;;;7.60;;
19814;SDS011;10067;53.092;8.800;2023-08-07T02:44:13;11.85;;;7.82;;
19814;SDS011;10067;53.092;8.800;2023-08-07T02:46:39;17.63;;;8.05;;
19814;SDS011;10067;53.092;8.800;2023-08-07T02:49:07;13.25;;;8.52;;
19814;SDS011;10067;53.092;8.800;2023-08-07T02:51:33;13.63;;;8.18;;
19814;SDS011;10067;53.092;8.800;2023-08-07T02:54:00;16.67;;;8.02;;
19814;SDS011;10067;53.092;8.800;2023-08-07T02:56:26;14.10;;;8.25;;
19814;SDS011;10067;53.092;8.800;2023-08-07T02:58:52;14.40;;;8.18;;
19814;SDS011;10067;53.092;8.800;2023-08-07T03:01:19;13.55;;;8.20;;
19814;SDS011;10067;53.092;8.800;2023-08-07T03:03:45;15.68;;;8.60;;
19814;SDS011;10067;53.092;8.800;2023-08-07T03:06:13;15.45;;;8.38;;
19814;SDS011;10067;53.092;8.800;2023-08-07T03:08:39;12.43;;;7.38;;
19814;SDS011;10067;53.092;8.800;2023-08-07T03:11:07;10.32;;;7.93;;
19814;SDS011;10067;53.092;8.800;2023-08-07T03:13:33;12.65;;;7.47;;
19814;SDS011;10067;53.092;8.800;2023-08-07T03:16:00;11.40;;;8.20;;
19814;SDS011;10067;53.092;8.800;2023-08-07T03:18:27;12.50;;;8.35;;
19814;SDS011;10067;53.092;8.800;2023-08-07T03:20:53;12.93;;;7.63;;
19814;SDS011;10067;53.092;8.800;2023-08-07T03:23:21;11.30;;;7.78;;
19814;SDS011;10067;53.092;8.800;2023-08-07T03:25:47;13.88;;;8.20;;
19814;SDS011;10067;53.092;8.800;2023-08-07T03:28:14;18.88;;;8.75;;
19814;SDS011;10067;53.092;8.800;2023-08-07T03:30:40;11.60;;;7.70;;
19814;SDS011;10067;53.092;8.800;2023-08-07T03:33:06;12.80;;;7.80;;
19814;SDS011;10067;53.092;8.800;2023-08-07T03:35:33;15.68;;;7.45;;
19814;SDS011;10067;53.092;8.800;2023-08-07T03:37:59;11.32;;;7.85;;
19814;SDS011;10067;53.092;8.800;2023-08-07T03:40:27;10.52;;;8.45;;
19814;SDS011;10067;53.092;8.800;2023-08-07T03:42:53;9.15;;;6.93;;
19814;SDS011;10067;53.092;8.800;2023-08-07T03:45:20;8.60;;;6.57;;
19814;SDS011;10067;53.092;8.800;2023-08-07T03:47:46;12.35;;;6.47;;
19814;SDS011;10067;53.092;8.800;2023-08-07T03:50:12;8.70;;;6.03;;
19814;SDS011;10067;53.092;8.800;2023-08-07T03:52:39;9.63;;;6.43;;
19814;SDS011;10067;53.092;8.800;2023-08-07T03:55:05;9.65;;;5.93;;
19814;SDS011;10067;53.092;8.800;2023-08-07T03:57:33;10.30;;;5.72;;
19814;SDS011;10067;53.092;8.800;2023-08-07T03:59:59;12.77;;;7.72;;
19814;SDS011;10067;53.092;8.800;2023-08-07T04:02:26;7.35;;;5.00;;
19814;SDS011;10067;53.092;8.800;2023-08-07T04:04:53;8.23;;;5.40;;
19814;SDS011;10067;53.092;8.800;2023-08-07T04:07:20;8.32;;;5.47;;
19814;SDS011;10067;53.092;8.800;2023-08-07T04:09:46;6.05;;;4.93;;
19814;SDS011;10067;53.092;8.800;2023-08-07T04:12:12;7.65;;;4.88;;
19814;SDS011;10067;53.092;8.800;2023-08-07T04:14:40;6.28;;;3.80;;
19814;SDS011;10067;53.092;8.800;2023-08-07T04:17:06;11.25;;;7.07;;
19814;SDS011;10067;53.092;8.800;2023-08-07T04:19:33;6.07;;;4.20;;
19814;SDS011;10067;53.092;8.800;2023-08-07T04:21:59;5.55;;;3.30;;
19814;SDS011;10067;53.092;8.800;2023-08-07T04:24:26;8.20;;;4.40;;
19814;SDS011;10067;53.092;8.800;2023-08-07T04:26:52;7.15;;;4.00;;
19814;SDS011;10067;53.092;8.800;2023-08-07T04:29:19;5.28;;;3.13;;
19814;SDS011;10067;53.092;8.800;2023-08-07T04:31:46;4.45;;;3.42;;
19814;SDS011;10067;53.092;8.800;2023-08-07T04:34:13;4.85;;;2.88;;
19814;SDS011;10067;53.092;8.800;2023-08-07T04:36:39;9.32;;;6.78;;
19814;SDS011;10067;53.092;8.800;2023-08-07T04:39:05;6.15;;;4.60;;
19814;SDS011;10067;53.092;8.800;2023-08-07T04:41:32;4.68;;;3.42;;
19814;SDS011;10067;53.092;8.800;2023-08-07T04:43:58;4.82;;;3.38;;
19814;SDS011;10067;53.092;8.800;2023-08-07T04:46:25;7.57;;;4.35;;
19814;SDS011;10067;53.092;8.800;2023-08-07T04:48:52;6.72;;;4.88;;
19814;SDS011;10067;53.092;8.800;2023-08-07T04:51:19;8.20;;;4.78;;
19814;SDS011;10067;53.092;8.800;2023-08-07T04:53:45;4.68;;;3.72;;
19814;SDS011;10067;53.092;8.800;2023-08-07T04:56:15;6.97;;;3.42;;
19814;SDS011;10067;53.092;8.800;2023-08-07T04:58:42;6.07;;;3.45;;
19814;SDS011;10067;53.092;8.800;2023-08-07T05:01:08;7.38;;;3.60;;
19814;SDS011;10067;53.092;8.800;2023-08-07T05:03:34;4.65;;;2.88;;
19814;SDS011;10067;53.092;8.800;2023-08-07T05:06:03;5.13;;;3.03;;
19814;SDS011;10067;53.092;8.800;2023-08-07T05:08:30;8.40;;;3.50;;
19814;SDS011;10067;53.092;8.800;2023-08-07T05:10:57;3.70;;;2.47;;
19814;SDS011;10067;53.092;8.800;2023-08-07T05:13:23;5.80;;;3.55;;
19814;SDS011;10067;53.092;8.800;2023-08-07T05:15:49;5.22;;;4.55;;
19814;SDS011;10067;53.092;8.800;2023-08-07T05:18:16;8.00;;;3.70;;
19814;SDS011;10067;53.092;8.800;2023-08-07T05:20:42;6.57;;;3.20;;
19814;SDS011;10067;53.092;8.800;2023-08-07T05:23:10;5.75;;;3.50;;
19814;SDS011;10067;53.092;8.800;2023-08-07T05:25:37;4.38;;;2.70;;
19814;SDS011;10067;53.092;8.800;2023-08-07T05:28:03;5.07;;;2.63;;
19814;SDS011;10067;53.092;8.800;2023-08-07T05:30:30;7.07;;;3.30;;
19814;SDS011;10067;53.092;8.800;2023-08-07T05:32:56;5.43;;;2.63;;
19814;SDS011;10067;53.092;8.800;2023-08-07T05:35:23;4.97;;;2.47;;
19814;SDS011;10067;53.092;8.800;2023-08-07T05:37:49;6.43;;;2.58;;
19814;SDS011;10067;53.092;8.800;2023-08-07T05:40:17;7.35;;;3.17;;
19814;SDS011;10067;53.092;8.800;2023-08-07T05:42:43;5.50;;;2.35;;
19814;SDS011;10067;53.092;8.800;2023-08-07T05:45:10;6.20;;;2.60;;
19814;SDS011;10067;53.092;8.800;2023-08-07T05:47:36;3.80;;;2.58;;
19814;SDS011;10067;53.092;8.800;2023-08-07T05:50:03;6.20;;;4.63;;
19814;SDS011;10067;53.092;8.800;2023-08-07T05:52:29;11.50;;;4.25;;
19814;SDS011;10067;53.092;8.800;2023-08-07T05:54:55;9.07;;;3.75;;
19814;SDS011;10067;53.092;8.800;2023-08-07T05:57:23;5.90;;;2.50;;
19814;SDS011;10067;53.092;8.800;2023-08-07T05:59:49;5.93;;;2.60;;
19814;SDS011;10067;53.092;8.800;2023-08-07T06:02:16;5.65;;;2.40;;
19814;SDS011;10067;53.092;8.800;2023-08-07T06:04:42;5.43;;;2.38;;
19814;SDS011;10067;53.092;8.800;2023-08-07T06:07:10;10.63;;;2.15;;
19814;SDS011;10067;53.092;8.800;2023-08-07T06:09:36;5.63;;;2.00;;
19814;SDS011;10067;53.092;8.800;2023-08-07T06:12:03;5.82;;;1.85;;
19814;SDS011;10067;53.092;8.800;2023-08-07T06:14:31;10.20;;;2.17;;
19814;SDS011;10067;53.092;8.800;2023-08-07T06:16:58;8.35;;;2.50;;
19814;SDS011;10067;53.092;8.800;2023-08-07T06:19:26;8.25;;;2.42;;
19814;SDS011;10067;53.092;8.800;2023-08-07T06:21:53;4.55;;;2.00;;
19814;SDS011;10067;53.092;8.800;2023-08-07T06:24:20;6.03;;;2.65;;
19814;SDS011;10067;53.092;8.800;2023-08-07T06:26:46;10.60;;;3.47;;
19814;SDS011;10067;53.092;8.800;2023-08-07T06:29:12;9.93;;;4.28;;
19814;SDS011;10067;53.092;8.800;2023-08-07T06:31:40;7.65;;;3.55;;
19814;SDS011;10067;53.092;8.800;2023-08-07T06:34:07;10.93;;;5.38;;
19814;SDS011;10067;53.092;8.800;2023-08-07T06:36:33;10.90;;;5.78;;
19814;SDS011;10067;53.092;8.800;2023-08-07T06:38:59;10.32;;;5.05;;
19814;SDS011;10067;53.092;8.800;2023-08-07T06:41:25;11.70;;;3.83;;
19814;SDS011;10067;53.092;8.800;2023-08-07T06:43:52;12.88;;;3.60;;
19814;SDS011;10067;53.092;8.800;2023-08-07T06:46:18;8.45;;;3.08;;
19814;SDS011;10067;53.092;8.800;2023-08-07T06:48:50;10.00;;;4.75;;
19814;SDS011;10067;53.092;8.800;2023-08-07T06:51:17;13.43;;;4.65;;
19814;SDS011;10067;53.092;8.800;2023-08-07T06:53:43;15.55;;;3.95;;
19814;SDS011;10067;53.092;8.800;2023-08-07T06:56:09;11.80;;;4.40;;
19814;SDS011;10067;53.092;8.800;2023-08-07T06:58:36;17.63;;;7.78;;
19814;SDS011;10067;53.092;8.800;2023-08-07T07:01:02;20.38;;;8.52;;
19814;SDS011;10067;53.092;8.800;2023-08-07T07:03:28;15.57;;;7.38;;
19814;SDS011;10067;53.092;8.800;2023-08-07T07:05:56;15.02;;;5.47;;
19814;SDS011;10067;53.092;8.800;2023-08-07T07:08:23;18.48;;;5.53;;
19814;SDS011;10067;53.092;8.800;2023-08-07T07:10:49;16.25;;;5.20;;
19814;SDS011;10067;53.092;8.800;2023-08-07T07:13:15;10.25;;;4.45;;
19814;SDS011;10067;53.092;8.800;2023-08-07T07:15:42;20.42;;;9.05;;
19814;SDS011;10067;53.092;8.800;2023-08-07T07:18:08;13.98;;;5.47;;
19814;SDS011;10067;53.092;8.800;2023-08-07T07:20:34;10.25;;;3.90;;
19814;SDS011;10067;53.092;8.800;2023-08-07T07:23:02;12.68;;;4.15;;
19814;SDS011;10067;53.092;8.800;2023-08-07T07:25:28;11.95;;;6.05;;
19814;SDS011;10067;53.092;8.800;2023-08-07T07:27:55;19.15;;;5.25;;
19814;SDS011;10067;53.092;8.800;2023-08-07T07:30:21;16.80;;;4.45;;
19814;SDS011;10067;53.092;8.800;2023-08-07T07:32:49;16.58;;;4.57;;
19814;SDS011;10067;53.092;8.800;2023-08-07T07:35:16;21.42;;;5.88;;
19814;SDS011;10067;53.092;8.800;2023-08-07T07:37:42;22.52;;;4.93;;
19814;SDS011;10067;53.092;8.800;2023-08-07T07:40:11;15.82;;;4.85;;
19814;SDS011;10067;53.092;8.800;2023-08-07T07:42:37;13.55;;;5.32;;
19814;SDS011;10067;53.092;8.800;2023-08-07T07:45:04;18.25;;;4.68;;
19814;SDS011;10067;53.092;8.800;2023-08-07T07:47:31;17.63;;;4.88;;
19814;SDS011;10067;53.092;8.800;2023-08-07T07:50:04;24.60;;;6.00;;
19814;SDS011;10067;53.092;8.800;2023-08-07T07:52:30;25.88;;;6.15;;
19814;SDS011;10067;53.092;8.800;2023-08-07T07:54:56;19.83;;;5.68;;
19814;SDS011;10067;53.092;8.800;2023-08-07T07:57:24;23.45;;;5.88;;
19814;SDS011;10067;53.092;8.800;2023-08-07T07:59:51;18.15;;;5.40;;
19814;SDS011;10067;53.092;8.800;2023-08-07T08:02:17;23.20;;;5.72;;
19814;SDS011;10067;53.092;8.800;2023-08-07T08:04:44;18.00;;;6.00;;
19814;SDS011;10067;53.092;8.800;2023-08-07T08:07:10;15.52;;;4.65;;
19814;SDS011;10067;53.092;8.800;2023-08-07T08:09:36;21.77;;;5.53;;
19814;SDS011;10067;53.092;8.800;2023-08-07T08:12:03;22.67;;;5.47;;
19814;SDS011;10067;53.092;8.800;2023-08-07T08:14:31;22.08;;;5.22;;
19814;SDS011;10067;53.092;8.800;2023-08-07T08:16:57;30.77;;;10.57;;
19814;SDS011;10067;53.092;8.800;2023-08-07T08:19:24;13.02;;;5.13;;
19814;SDS011;10067;53.092;8.800;2023-08-07T08:21:50;14.77;;;4.25;;
19814;SDS011;10067;53.092;8.800;2023-08-07T08:24:16;10.95;;;3.53;;
19814;SDS011;10067;53.092;8.800;2023-08-07T08:26:43;11.70;;;3.67;;
19814;SDS011;10067;53.092;8.800;2023-08-07T08:29:09;16.90;;;3.83;;
19814;SDS011;10067;53.092;8.800;2023-08-07T08:31:37;16.63;;;3.70;;
19814;SDS011;10067;53.092;8.800;2023-08-07T08:34:03;12.90;;;3.47;;
19814;SDS011;10067;53.092;8.800;2023-08-07T08:36:30;13.82;;;3.55;;
19814;SDS011;10067;53.092;8.800;2023-08-07T08:38:56;19.85;;;5.03;;
19814;SDS011;10067;53.092;8.800;2023-08-07T08:41:23;12.93;;;3.42;;
19814;SDS011;10067;53.092;8.800;2023-08-07T08:43:49;16.02;;;4.15;;
19814;SDS011;10067;53.092;8.800;2023-08-07T08:46:17;17.15;;;3.85;;
19814;SDS011;10067;53.092;8.800;2023-08-07T08:48:50;19.98;;;3.58;;
19814;SDS011;10067;53.092;8.800;2023-08-07T08:51:16;20.55;;;3.58;;
19814;SDS011;10067;53.092;8.800;2023-08-07T08:53:43;14.85;;;3.78;;
19814;SDS011;10067;53.092;8.800;2023-08-07T08:56:09;10.63;;;3.20;;
19814;SDS011;10067;53.092;8.800;2023-08-07T08:58:36;11.45;;;2.88;;
19814;SDS011;10067;53.092;8.800;2023-08-07T09:01:03;13.68;;;2.85;;
19814;SDS011;10067;53.092;8.800;2023-08-07T09:03:30;14.32;;;3.60;;
19814;SDS011;10067;53.092;8.800;2023-08-07T09:05:58;12.90;;;2.88;;
19814;SDS011;10067;53.092;8.800;2023-08-07T09:08:25;10.75;;;3.33;;
19814;SDS011;10067;53.092;8.800;2023-08-07T09:10:54;7.80;;;2.55;;
19814;SDS011;10067;53.092;8.800;2023-08-07T09:13:21;10.95;;;2.92;;
19814;SDS011;10067;53.092;8.800;2023-08-07T09:15:48;12.77;;;6.50;;
19814;SDS011;10067;53.092;8.800;2023-08-07T09:18:16;17.20;;;5.57;;
19814;SDS011;10067;53.092;8.800;2023-08-07T09:20:43;15.32;;;5.43;;
19814;SDS011;10067;53.092;8.800;2023-08-07T09:23:10;12.98;;;3.92;;
19814;SDS011;10067;53.092;8.800;2023-08-07T09:25:37;15.90;;;4.00;;
19814;SDS011;10067;53.092;8.800;2023-08-07T09:28:04;13.43;;;4.00;;
19814;SDS011;10067;53.092;8.800;2023-08-07T09:30:30;12.75;;;4.18;;
19814;SDS011;10067;53.092;8.800;2023-08-07T09:32:57;16.10;;;4.13;;
19814;SDS011;10067;53.092;8.800;2023-08-07T09:35:24;11.63;;;3.40;;
19814;SDS011;10067;53.092;8.800;2023-08-07T09:37:50;25.27;;;4.35;;
19814;SDS011;10067;53.092;8.800;2023-08-07T09:40:18;15.32;;;3.30;;
19814;SDS011;10067;53.092;8.800;2023-08-07T09:42:45;17.00;;;4.20;;
19814;SDS011;10067;53.092;8.800;2023-08-07T09:45:19;15.45;;;3.70;;
19814;SDS011;10067;53.092;8.800;2023-08-07T09:47:45;24.85;;;4.57;;
19814;SDS011;10067;53.092;8.800;2023-08-07T09:50:15;20.15;;;4.93;;
19814;SDS011;10067;53.092;8.800;2023-08-07T09:52:41;23.52;;;8.35;;
19814;SDS011;10067;53.092;8.800;2023-08-07T09:55:07;18.48;;;4.93;;
19814;SDS011;10067;53.092;8.800;2023-08-07T09:57:35;16.38;;;3.50;;
19814;SDS011;10067;53.092;8.800;2023-08-07T10:00:02;14.77;;;4.45;;
19814;SDS011;10067;53.092;8.800;2023-08-07T10:02:36;17.73;;;4.75;;
19814;SDS011;10067;53.092;8.800;2023-08-07T10:05:03;18.42;;;4.07;;
19814;SDS011;10067;53.092;8.800;2023-08-07T10:07:30;14.20;;;4.03;;
19814;SDS011;10067;53.092;8.800;2023-08-07T10:09:57;14.70;;;4.30;;
19814;SDS011;10067;53.092;8.800;2023-08-07T10:12:26;22.52;;;4.32;;
19814;SDS011;10067;53.092;8.800;2023-08-07T10:14:54;13.15;;;4.55;;
19814;SDS011;10067;53.092;8.800;2023-08-07T10:17:21;15.73;;;4.40;;
19814;SDS011;10067;53.092;8.800;2023-08-07T10:19:47;16.42;;;4.47;;
19814;SDS011;10067;53.092;8.800;2023-08-07T10:22:14;16.23;;;4.65;;
19814;SDS011;10067;53.092;8.800;2023-08-07T10:24:41;13.45;;;3.35;;
19814;SDS011;10067;53.092;8.800;2023-08-07T10:27:09;14.32;;;3.95;;
19814;SDS011;10067;53.092;8.800;2023-08-07T10:29:36;24.98;;;9.73;;
19814;SDS011;10067;53.092;8.800;2023-08-07T10:32:05;16.40;;;4.38;;
19814;SDS011;10067;53.092;8.800;2023-08-07T10:34:33;12.05;;;4.00;;
19814;SDS011;10067;53.092;8.800;2023-08-07T10:36:59;15.85;;;4.88;;
19814;SDS011;10067;53.092;8.800;2023-08-07T10:39:25;9.95;;;3.20;;
19814;SDS011;10067;53.092;8.800;2023-08-07T10:41:52;17.83;;;3.70;;
19814;SDS011;10067;53.092;8.800;2023-08-07T10:44:19;10.68;;;4.10;;
19814;SDS011;10067;53.092;8.800;2023-08-07T10:46:49;11.90;;;3.40;;
19814;SDS011;10067;53.092;8.800;2023-08-07T10:49:30;10.45;;;3.38;;
19814;SDS011;10067;53.092;8.800;2023-08-07T10:51:58;13.07;;;3.97;;
19814;SDS011;10067;53.092;8.800;2023-08-07T10:54:24;30.90;;;8.40;;
19814;SDS011;10067;53.092;8.800;2023-08-07T10:56:52;21.52;;;6.78;;
19814;SDS011;10067;53.092;8.800;2023-08-07T10:59:19;20.73;;;6.65;;
19814;SDS011;10067;53.092;8.800;2023-08-07T11:01:50;18.67;;;5.90;;
19814;SDS011;10067;53.092;8.800;2023-08-07T11:04:17;20.50;;;7.72;;
19814;SDS011;10067;53.092;8.800;2023-08-07T11:06:46;14.65;;;4.10;;
19814;SDS011;10067;53.092;8.800;2023-08-07T11:09:13;12.02;;;4.10;;
19814;SDS011;10067;53.092;8.800;2023-08-07T11:11:41;8.02;;;2.53;;
19814;SDS011;10067;53.092;8.800;2023-08-07T11:14:09;15.32;;;3.13;;
19814;SDS011;10067;53.092;8.800;2023-08-07T11:16:35;26.05;;;5.68;;
19814;SDS011;10067;53.092;8.800;2023-08-07T11:19:02;19.50;;;4.25;;
19814;SDS011;10067;53.092;8.800;2023-08-07T11:21:30;29.88;;;4.25;;
19814;SDS011;10067;53.092;8.800;2023-08-07T11:23:58;15.50;;;3.60;;
19814;SDS011;10067;53.092;8.800;2023-08-07T11:26:24;9.73;;;3.45;;
19814;SDS011;10067;53.092;8.800;2023-08-07T11:28:53;8.48;;;2.85;;
19814;SDS011;10067;53.092;8.800;2023-08-07T11:31:19;7.30;;;2.40;;
19814;SDS011;10067;53.092;8.800;2023-08-07T11:33:45;9.93;;;2.85;;
19814;SDS011;10067;53.092;8.800;2023-08-07T11:36:12;14.18;;;3.42;;
19814;SDS011;10067;53.092;8.800;2023-08-07T11:38:39;9.98;;;3.05;;
19814;SDS011;10067;53.092;8.800;2023-08-07T11:41:09;15.57;;;4.25;;
19814;SDS011;10067;53.092;8.800;2023-08-07T11:43:36;14.25;;;3.85;;
19814;SDS011;10067;53.092;8.800;2023-08-07T11:46:03;11.82;;;3.08;;
19814;SDS011;10067;53.092;8.800;2023-08-07T11:48:30;11.50;;;3.50;;
19814;SDS011;10067;53.092;8.800;2023-08-07T11:50:57;11.07;;;3.10;;
19814;SDS011;10067;53.092;8.800;2023-08-07T11:53:24;9.30;;;3.00;;
19814;SDS011;10067;53.092;8.800;2023-08-07T11:55:55;12.20;;;3.75;;
19814;SDS011;10067;53.092;8.800;2023-08-07T11:58:23;8.20;;;2.90;;
19814;SDS011;10067;53.092;8.800;2023-08-07T12:00:50;10.88;;;3.08;;
19814;SDS011;10067;53.092;8.800;2023-08-07T12:03:23;9.18;;;2.80;;
19814;SDS011;10067;53.092;8.800;2023-08-07T12:05:50;7.78;;;2.80;;
19814;SDS011;10067;53.092;8.800;2023-08-07T12:08:17;9.48;;;2.80;;
19814;SDS011;10067;53.092;8.800;2023-08-07T12:10:43;7.15;;;2.70;;
19814;SDS011;10067;53.092;8.800;2023-08-07T12:13:09;8.82;;;2.85;;
19814;SDS011;10067;53.092;8.800;2023-08-07T12:15:39;7.95;;;2.33;;
19814;SDS011;10067;53.092;8.800;2023-08-07T12:18:07;9.90;;;2.38;;
19814;SDS011;10067;53.092;8.800;2023-08-07T12:20:33;8.90;;;2.63;;
19814;SDS011;10067;53.092;8.800;2023-08-07T12:22:59;14.63;;;3.05;;
19814;SDS011;10067;53.092;8.800;2023-08-07T12:25:26;6.45;;;2.63;;
19814;SDS011;10067;53.092;8.800;2023-08-07T12:27:52;17.80;;;4.15;;
19814;SDS011;10067;53.092;8.800;2023-08-07T12:30:18;11.85;;;2.97;;
19814;SDS011;10067;53.092;8.800;2023-08-07T12:32:46;15.43;;;3.50;;
19814;SDS011;10067;53.092;8.800;2023-08-07T12:35:12;12.25;;;4.00;;
19814;SDS011;10067;53.092;8.800;2023-08-07T12:37:39;12.85;;;4.82;;
19814;SDS011;10067;53.092;8.800;2023-08-07T12:40:06;16.42;;;4.10;;
19814;SDS011;10067;53.092;8.800;2023-08-07T12:42:32;11.63;;;3.42;;
19814;SDS011;10067;53.092;8.800;2023-08-07T12:44:59;8.10;;;2.63;;
19814;SDS011;10067;53.092;8.800;2023-08-07T12:47:26;5.57;;;2.05;;
19814;SDS011;10067;53.092;8.800;2023-08-07T12:49:54;5.72;;;2.33;;
19814;SDS011;10067;53.092;8.800;2023-08-07T12:52:20;8.50;;;2.47;;
19814;SDS011;10067;53.092;8.800;2023-08-07T12:54:47;6.22;;;2.35;;
19814;SDS011;10067;53.092;8.800;2023-08-07T12:57:14;8.40;;;3.38;;
19814;SDS011;10067;53.092;8.800;2023-08-07T12:59:40;8.38;;;1.95;;
19814;SDS011;10067;53.092;8.800;2023-08-07T13:02:07;7.93;;;2.38;;
19814;SDS011;10067;53.092;8.800;2023-08-07T13:04:35;8.82;;;3.00;;
19814;SDS011;10067;53.092;8.800;2023-08-07T13:07:05;9.13;;;2.20;;
19814;SDS011;10067;53.092;8.800;2023-08-07T13:09:32;10.93;;;2.75;;
19814;SDS011;10067;53.092;8.800;2023-08-07T13:12:01;11.75;;;2.92;;
19814;SDS011;10067;53.092;8.800;2023-08-07T13:14:28;12.40;;;2.78;;
19814;SDS011;10067;53.092;8.800;2023-08-07T13:16:54;11.13;;;3.78;;
19814;SDS011;10067;53.092;8.800;2023-08-07T13:19:21;10.30;;;3.25;;
19814;SDS011;10067;53.092;8.800;2023-08-07T13:21:48;12.27;;;3.50;;
19814;SDS011;10067;53.092;8.800;2023-08-07T13:24:15;15.00;;;3.15;;
19814;SDS011;10067;53.092;8.800;2023-08-07T13:26:42;13.77;;;2.85;;
19814;SDS011;10067;53.092;8.800;2023-08-07T13:29:16;13.85;;;3.90;;
19814;SDS011;10067;53.092;8.800;2023-08-07T13:31:43;18.90;;;5.43;;
19814;SDS011;10067;53.092;8.800;2023-08-07T13:34:11;16.75;;;5.43;;
19814;SDS011;10067;53.092;8.800;2023-08-07T13:36:39;11.27;;;4.22;;
19814;SDS011;10067;53.092;8.800;2023-08-07T13:39:08;12.43;;;5.32;;
19814;SDS011;10067;53.092;8.800;2023-08-07T13:41:36;16.52;;;5.03;;
19814;SDS011;10067;53.092;8.800;2023-08-07T13:44:03;9.38;;;3.50;;
19814;SDS011;10067;53.092;8.800;2023-08-07T13:46:29;12.40;;;3.30;;
19814;SDS011;10067;53.092;8.800;2023-08-07T13:48:56;11.30;;;4.18;;
19814;SDS011;10067;53.092;8.800;2023-08-07T13:51:23;10.63;;;3.17;;
19814;SDS011;10067;53.092;8.800;2023-08-07T13:53:49;6.35;;;3.65;;
19814;SDS011;10067;53.092;8.800;2023-08-07T13:56:18;12.88;;;3.72;;
19814;SDS011;10067;53.092;8.800;2023-08-07T13:58:46;12.48;;;3.88;;
19814;SDS011;10067;53.092;8.800;2023-08-07T14:01:12;10.95;;;3.85;;
19814;SDS011;10067;53.092;8.800;2023-08-07T14:03:39;18.15;;;6.28;;
19814;SDS011;10067;53.092;8.800;2023-08-07T14:06:05;9.63;;;4.25;;
19814;SDS011;10067;53.092;8.800;2023-08-07T14:08:32;8.77;;;3.22;;
19814;SDS011;10067;53.092;8.800;2023-08-07T14:11:01;13.13;;;4.25;;
19814;SDS011;10067;53.092;8.800;2023-08-07T14:13:28;11.80;;;4.63;;
19814;SDS011;10067;53.092;8.800;2023-08-07T14:15:55;12.10;;;4.82;;
19814;SDS011;10067;53.092;8.800;2023-08-07T14:18:22;8.38;;;2.78;;
19814;SDS011;10067;53.092;8.800;2023-08-07T14:20:48;10.77;;;3.10;;
19814;SDS011;10067;53.092;8.800;2023-08-07T14:23:15;13.30;;;2.65;;
19814;SDS011;10067;53.092;8.800;2023-08-07T14:25:43;10.38;;;2.67;;
19814;SDS011;10067;53.092;8.800;2023-08-07T14:28:10;7.32;;;2.90;;
19814;SDS011;10067;53.092;8.800;2023-08-07T14:30:36;10.25;;;3.05;;
19814;SDS011;10067;53.092;8.800;2023-08-07T14:33:04;7.35;;;2.58;;
19814;SDS011;10067;53.092;8.800;2023-08-07T14:35:31;12.45;;;2.65;;